sensor_id;sensor_type;location;lat;lon;timestamp;P1;durP1;ratioP1;P2;durP2;ratioP2
73642;SDS011;61938;48.652;9.292;2024-01-15T00:01:46;40.90;;;14.73;;
73642;SDS011;61938;48.652;9.292;2024-01-15T00:04:11;45.40;;;13.98;;
73642;SDS011;61938;48.652;9.292;2024-01-15T00:06:37;37.97;;;13.68;;
73642;SDS011;61938;48.652;9.292;2024-01-15T00:09:02;44.63;;;14.18;;
73642;SDS011;61938;48.652;9.292;2024-01-15T00:11:28;43.13;;;14.93;;
73642;SDS011;61938;48.652;9.292;2024-01-15T00:13:53;41.03;;;14.35;;
73642;SDS011;61938;48.652;9.292;2024-01-15T00:16:19;35.92;;;13.25;;
73642;SDS011;61938;48.652;9.292;2024-01-15T00:18:45;44.95;;;14.45;;
73642;SDS011;61938;48.652;9.292;2024-01-15T00:21:10;35.72;;;12.65;;
73642;SDS011;61938;48.652;9.292;2024-01-15T00:23:36;43.70;;;14.25;;
73642;SDS011;61938;48.652;9.292;2024-01-15T00:26:01;37.30;;;14.15;;
73642;SDS011;61938;48.652;9.292;2024-01-15T00:28:27;37.33;;;13.50;;
73642;SDS011;61938;48.652;9.292;2024-01-15T00:30:52;41.40;;;14.15;;
73642;SDS011;61938;48.652;9.292;2024-01-15T00:33:18;37.53;;;13.18;;
73642;SDS011;61938;48.652;9.292;2024-01-15T00:35:43;37.80;;;12.50;;
73642;SDS011;61938;48.652;9.292;2024-01-15T00:38:09;39.20;;;13.57;;
73642;SDS011;61938;48.652;9.292;2024-01-15T00:40:35;42.80;;;14.02;;
73642;SDS011;61938;48.652;9.292;2024-01-15T00:43:00;38.30;;;13.63;;
73642;SDS011;61938;48.652;9.292;2024-01-15T00:45:27;37.40;;;12.00;;
73642;SDS011;61938;48.652;9.292;2024-01-15T00:47:52;33.67;;;11.77;;
73642;SDS011;61938;48.652;9.292;2024-01-15T00:50:18;30.33;;;11.57;;
73642;SDS011;61938;48.652;9.292;2024-01-15T00:52:43;34.78;;;12.93;;
73642;SDS011;61938;48.652;9.292;2024-01-15T00:55:09;38.63;;;11.93;;
73642;SDS011;61938;48.652;9.292;2024-01-15T00:57:34;35.47;;;12.32;;
73642;SDS011;61938;48.652;9.292;2024-01-15T01:00:00;34.83;;;12.30;;
73642;SDS011;61938;48.652;9.292;2024-01-15T01:02:26;35.40;;;12.48;;
73642;SDS011;61938;48.652;9.292;2024-01-15T01:04:51;35.15;;;12.13;;
73642;SDS011;61938;48.652;9.292;2024-01-15T01:07:17;43.72;;;13.32;;
73642;SDS011;61938;48.652;9.292;2024-01-15T01:09:42;35.33;;;12.65;;
73642;SDS011;61938;48.652;9.292;2024-01-15T01:12:08;36.95;;;11.77;;
73642;SDS011;61938;48.652;9.292;2024-01-15T01:14:34;33.92;;;12.07;;
73642;SDS011;61938;48.652;9.292;2024-01-15T01:17:00;34.30;;;11.52;;
73642;SDS011;61938;48.652;9.292;2024-01-15T01:19:25;34.70;;;11.93;;
73642;SDS011;61938;48.652;9.292;2024-01-15T01:21:51;37.25;;;12.45;;
73642;SDS011;61938;48.652;9.292;2024-01-15T01:24:16;32.83;;;11.55;;
73642;SDS011;61938;48.652;9.292;2024-01-15T01:26:42;36.00;;;11.90;;
73642;SDS011;61938;48.652;9.292;2024-01-15T01:29:07;32.00;;;12.13;;
73642;SDS011;61938;48.652;9.292;2024-01-15T01:31:33;38.75;;;11.90;;
73642;SDS011;61938;48.652;9.292;2024-01-15T01:33:59;30.77;;;11.55;;
73642;SDS011;61938;48.652;9.292;2024-01-15T01:36:24;35.47;;;11.63;;
73642;SDS011;61938;48.652;9.292;2024-01-15T01:38:50;37.28;;;13.00;;
73642;SDS011;61938;48.652;9.292;2024-01-15T01:41:15;36.08;;;13.10;;
73642;SDS011;61938;48.652;9.292;2024-01-15T01:43:41;40.90;;;14.07;;
73642;SDS011;61938;48.652;9.292;2024-01-15T01:46:06;36.80;;;12.73;;
73642;SDS011;61938;48.652;9.292;2024-01-15T01:48:32;39.63;;;13.90;;
73642;SDS011;61938;48.652;9.292;2024-01-15T01:50:59;35.70;;;13.32;;
73642;SDS011;61938;48.652;9.292;2024-01-15T01:53:27;38.85;;;12.07;;
73642;SDS011;61938;48.652;9.292;2024-01-15T01:55:54;37.33;;;13.07;;
73642;SDS011;61938;48.652;9.292;2024-01-15T01:58:21;43.10;;;13.00;;
73642;SDS011;61938;48.652;9.292;2024-01-15T02:00:46;34.22;;;12.05;;
73642;SDS011;61938;48.652;9.292;2024-01-15T02:03:12;39.28;;;13.60;;
73642;SDS011;61938;48.652;9.292;2024-01-15T02:05:39;34.80;;;12.10;;
73642;SDS011;61938;48.652;9.292;2024-01-15T02:08:05;34.75;;;12.88;;
73642;SDS011;61938;48.652;9.292;2024-01-15T02:10:31;39.75;;;13.15;;
73642;SDS011;61938;48.652;9.292;2024-01-15T02:12:57;33.60;;;12.85;;
73642;SDS011;61938;48.652;9.292;2024-01-15T02:15:23;35.70;;;11.98;;
73642;SDS011;61938;48.652;9.292;2024-01-15T02:17:58;40.75;;;13.93;;
73642;SDS011;61938;48.652;9.292;2024-01-15T02:20:28;36.85;;;12.90;;
73642;SDS011;61938;48.652;9.292;2024-01-15T02:23:28;35.35;;;12.57;;
73642;SDS011;61938;48.652;9.292;2024-01-15T02:25:47;36.22;;;12.57;;
73642;SDS011;61938;48.652;9.292;2024-01-15T02:28:13;36.47;;;12.27;;
73642;SDS011;61938;48.652;9.292;2024-01-15T02:30:42;39.47;;;13.13;;
73642;SDS011;61938;48.652;9.292;2024-01-15T02:33:09;38.28;;;13.18;;
73642;SDS011;61938;48.652;9.292;2024-01-15T02:35:35;37.55;;;12.15;;
73642;SDS011;61938;48.652;9.292;2024-01-15T02:38:02;34.95;;;13.25;;
73642;SDS011;61938;48.652;9.292;2024-01-15T02:40:28;35.33;;;11.93;;
73642;SDS011;61938;48.652;9.292;2024-01-15T02:42:53;33.70;;;11.95;;
73642;SDS011;61938;48.652;9.292;2024-01-15T02:45:19;39.67;;;12.25;;
73642;SDS011;61938;48.652;9.292;2024-01-15T02:47:45;36.25;;;12.23;;
73642;SDS011;61938;48.652;9.292;2024-01-15T02:50:10;40.08;;;12.80;;
73642;SDS011;61938;48.652;9.292;2024-01-15T02:52:36;36.25;;;12.85;;
73642;SDS011;61938;48.652;9.292;2024-01-15T02:55:02;39.78;;;11.52;;
73642;SDS011;61938;48.652;9.292;2024-01-15T02:57:28;38.58;;;13.40;;
73642;SDS011;61938;48.652;9.292;2024-01-15T02:59:53;34.53;;;11.75;;
73642;SDS011;61938;48.652;9.292;2024-01-15T03:02:19;36.65;;;11.52;;
73642;SDS011;61938;48.652;9.292;2024-01-15T03:04:44;30.58;;;11.02;;
73642;SDS011;61938;48.652;9.292;2024-01-15T03:07:10;33.40;;;11.95;;
73642;SDS011;61938;48.652;9.292;2024-01-15T03:09:35;34.75;;;12.93;;
73642;SDS011;61938;48.652;9.292;2024-01-15T03:12:01;36.15;;;12.25;;
73642;SDS011;61938;48.652;9.292;2024-01-15T03:14:27;29.25;;;10.73;;
73642;SDS011;61938;48.652;9.292;2024-01-15T03:16:52;37.85;;;11.13;;
73642;SDS011;61938;48.652;9.292;2024-01-15T03:19:18;37.33;;;11.10;;
73642;SDS011;61938;48.652;9.292;2024-01-15T03:21:44;27.85;;;10.60;;
73642;SDS011;61938;48.652;9.292;2024-01-15T03:24:09;31.80;;;10.95;;
73642;SDS011;61938;48.652;9.292;2024-01-15T03:26:35;28.00;;;10.70;;
73642;SDS011;61938;48.652;9.292;2024-01-15T03:29:01;32.28;;;11.45;;
73642;SDS011;61938;48.652;9.292;2024-01-15T03:31:26;32.38;;;9.57;;
73642;SDS011;61938;48.652;9.292;2024-01-15T03:33:52;28.55;;;10.63;;
73642;SDS011;61938;48.652;9.292;2024-01-15T03:36:17;32.88;;;10.50;;
73642;SDS011;61938;48.652;9.292;2024-01-15T03:38:43;36.08;;;11.35;;
73642;SDS011;61938;48.652;9.292;2024-01-15T03:41:08;33.17;;;11.95;;
73642;SDS011;61938;48.652;9.292;2024-01-15T03:43:34;32.92;;;10.90;;
73642;SDS011;61938;48.652;9.292;2024-01-15T03:45:59;34.25;;;11.10;;
73642;SDS011;61938;48.652;9.292;2024-01-15T03:48:25;32.50;;;11.70;;
73642;SDS011;61938;48.652;9.292;2024-01-15T03:50:50;29.35;;;10.88;;
73642;SDS011;61938;48.652;9.292;2024-01-15T03:53:16;29.73;;;9.50;;
73642;SDS011;61938;48.652;9.292;2024-01-15T03:55:42;30.08;;;10.20;;
73642;SDS011;61938;48.652;9.292;2024-01-15T03:58:07;32.67;;;9.48;;
73642;SDS011;61938;48.652;9.292;2024-01-15T04:00:33;30.20;;;10.45;;
73642;SDS011;61938;48.652;9.292;2024-01-15T04:02:59;28.45;;;10.23;;
73642;SDS011;61938;48.652;9.292;2024-01-15T04:05:25;29.52;;;9.60;;
73642;SDS011;61938;48.652;9.292;2024-01-15T04:07:51;28.92;;;9.60;;
73642;SDS011;61938;48.652;9.292;2024-01-15T04:10:16;34.63;;;11.27;;
73642;SDS011;61938;48.652;9.292;2024-01-15T04:12:42;32.00;;;10.65;;
73642;SDS011;61938;48.652;9.292;2024-01-15T04:15:07;28.25;;;9.32;;
73642;SDS011;61938;48.652;9.292;2024-01-15T04:17:33;30.67;;;9.57;;
73642;SDS011;61938;48.652;9.292;2024-01-15T04:19:59;32.10;;;9.88;;
73642;SDS011;61938;48.652;9.292;2024-01-15T04:22:25;30.58;;;10.32;;
73642;SDS011;61938;48.652;9.292;2024-01-15T04:24:50;39.85;;;11.30;;
73642;SDS011;61938;48.652;9.292;2024-01-15T04:27:16;38.70;;;11.43;;
73642;SDS011;61938;48.652;9.292;2024-01-15T04:29:41;29.00;;;10.38;;
73642;SDS011;61938;48.652;9.292;2024-01-15T04:32:09;32.88;;;12.00;;
73642;SDS011;61938;48.652;9.292;2024-01-15T04:34:35;31.98;;;11.60;;
73642;SDS011;61938;48.652;9.292;2024-01-15T04:37:00;31.95;;;12.15;;
73642;SDS011;61938;48.652;9.292;2024-01-15T04:39:26;37.40;;;11.45;;
73642;SDS011;61938;48.652;9.292;2024-01-15T04:41:51;34.45;;;9.95;;
73642;SDS011;61938;48.652;9.292;2024-01-15T04:44:17;31.55;;;10.73;;
73642;SDS011;61938;48.652;9.292;2024-01-15T04:46:42;29.08;;;9.80;;
73642;SDS011;61938;48.652;9.292;2024-01-15T04:49:09;31.08;;;10.63;;
73642;SDS011;61938;48.652;9.292;2024-01-15T04:51:34;32.35;;;11.27;;
73642;SDS011;61938;48.652;9.292;2024-01-15T04:54:00;29.45;;;10.52;;
73642;SDS011;61938;48.652;9.292;2024-01-15T04:56:26;37.33;;;11.32;;
73642;SDS011;61938;48.652;9.292;2024-01-15T04:58:51;26.42;;;9.80;;
73642;SDS011;61938;48.652;9.292;2024-01-15T05:01:17;33.92;;;11.13;;
73642;SDS011;61938;48.652;9.292;2024-01-15T05:03:43;38.30;;;10.60;;
73642;SDS011;61938;48.652;9.292;2024-01-15T05:06:08;32.17;;;11.00;;
73642;SDS011;61938;48.652;9.292;2024-01-15T05:08:34;36.50;;;11.23;;
73642;SDS011;61938;48.652;9.292;2024-01-15T05:11:00;32.60;;;10.95;;
73642;SDS011;61938;48.652;9.292;2024-01-15T05:13:26;31.27;;;10.63;;
73642;SDS011;61938;48.652;9.292;2024-01-15T05:15:52;36.63;;;12.45;;
73642;SDS011;61938;48.652;9.292;2024-01-15T05:18:17;36.63;;;11.73;;
73642;SDS011;61938;48.652;9.292;2024-01-15T05:20:43;35.58;;;12.27;;
73642;SDS011;61938;48.652;9.292;2024-01-15T05:23:09;34.33;;;12.32;;
73642;SDS011;61938;48.652;9.292;2024-01-15T05:25:34;36.50;;;13.18;;
73642;SDS011;61938;48.652;9.292;2024-01-15T05:28:01;42.30;;;13.25;;
73642;SDS011;61938;48.652;9.292;2024-01-15T05:30:27;37.60;;;11.48;;
73642;SDS011;61938;48.652;9.292;2024-01-15T05:32:52;34.85;;;12.07;;
73642;SDS011;61938;48.652;9.292;2024-01-15T05:35:18;37.92;;;11.95;;
73642;SDS011;61938;48.652;9.292;2024-01-15T05:37:44;40.45;;;12.20;;
73642;SDS011;61938;48.652;9.292;2024-01-15T05:40:10;37.67;;;12.05;;
73642;SDS011;61938;48.652;9.292;2024-01-15T05:42:37;33.72;;;12.57;;
73642;SDS011;61938;48.652;9.292;2024-01-15T05:45:04;42.58;;;12.80;;
73642;SDS011;61938;48.652;9.292;2024-01-15T05:47:30;39.72;;;12.13;;
73642;SDS011;61938;48.652;9.292;2024-01-15T05:49:56;31.83;;;11.65;;
73642;SDS011;61938;48.652;9.292;2024-01-15T05:52:22;35.63;;;12.27;;
73642;SDS011;61938;48.652;9.292;2024-01-15T05:54:47;34.88;;;11.13;;
73642;SDS011;61938;48.652;9.292;2024-01-15T05:57:13;34.42;;;11.10;;
73642;SDS011;61938;48.652;9.292;2024-01-15T05:59:38;40.00;;;12.55;;
73642;SDS011;61938;48.652;9.292;2024-01-15T06:02:04;33.03;;;12.70;;
73642;SDS011;61938;48.652;9.292;2024-01-15T06:04:29;43.30;;;12.65;;
73642;SDS011;61938;48.652;9.292;2024-01-15T06:06:55;32.72;;;12.30;;
73642;SDS011;61938;48.652;9.292;2024-01-15T06:09:20;35.47;;;12.38;;
73642;SDS011;61938;48.652;9.292;2024-01-15T06:11:46;35.00;;;12.50;;
73642;SDS011;61938;48.652;9.292;2024-01-15T06:14:11;35.03;;;12.40;;
73642;SDS011;61938;48.652;9.292;2024-01-15T06:16:37;37.20;;;12.85;;
73642;SDS011;61938;48.652;9.292;2024-01-15T06:19:02;35.20;;;12.27;;
73642;SDS011;61938;48.652;9.292;2024-01-15T06:21:28;33.05;;;12.13;;
73642;SDS011;61938;48.652;9.292;2024-01-15T06:23:54;33.95;;;12.35;;
73642;SDS011;61938;48.652;9.292;2024-01-15T06:26:21;32.13;;;11.27;;
73642;SDS011;61938;48.652;9.292;2024-01-15T06:28:47;34.28;;;12.52;;
73642;SDS011;61938;48.652;9.292;2024-01-15T06:31:13;31.42;;;12.38;;
73642;SDS011;61938;48.652;9.292;2024-01-15T06:33:38;31.55;;;10.70;;
73642;SDS011;61938;48.652;9.292;2024-01-15T06:36:04;31.80;;;11.85;;
73642;SDS011;61938;48.652;9.292;2024-01-15T06:38:30;32.13;;;12.57;;
73642;SDS011;61938;48.652;9.292;2024-01-15T06:40:56;28.10;;;11.73;;
73642;SDS011;61938;48.652;9.292;2024-01-15T06:43:21;34.05;;;12.02;;
73642;SDS011;61938;48.652;9.292;2024-01-15T06:45:47;34.60;;;12.70;;
73642;SDS011;61938;48.652;9.292;2024-01-15T06:48:12;29.63;;;11.57;;
73642;SDS011;61938;48.652;9.292;2024-01-15T06:50:41;33.50;;;11.90;;
73642;SDS011;61938;48.652;9.292;2024-01-15T06:53:10;31.15;;;12.23;;
73642;SDS011;61938;48.652;9.292;2024-01-15T06:55:35;34.25;;;12.20;;
73642;SDS011;61938;48.652;9.292;2024-01-15T06:58:01;36.97;;;13.32;;
73642;SDS011;61938;48.652;9.292;2024-01-15T07:00:26;35.00;;;12.05;;
73642;SDS011;61938;48.652;9.292;2024-01-15T07:02:52;35.28;;;12.00;;
73642;SDS011;61938;48.652;9.292;2024-01-15T07:05:18;26.67;;;10.63;;
73642;SDS011;61938;48.652;9.292;2024-01-15T07:07:45;32.70;;;11.55;;
73642;SDS011;61938;48.652;9.292;2024-01-15T07:10:10;29.25;;;10.93;;
73642;SDS011;61938;48.652;9.292;2024-01-15T07:12:36;23.50;;;9.18;;
73642;SDS011;61938;48.652;9.292;2024-01-15T07:15:02;26.88;;;9.23;;
73642;SDS011;61938;48.652;9.292;2024-01-15T07:17:29;30.65;;;10.55;;
73642;SDS011;61938;48.652;9.292;2024-01-15T07:19:56;25.75;;;9.60;;
73642;SDS011;61938;48.652;9.292;2024-01-15T07:22:21;23.75;;;9.27;;
73642;SDS011;61938;48.652;9.292;2024-01-15T07:24:47;28.20;;;9.48;;
73642;SDS011;61938;48.652;9.292;2024-01-15T07:27:12;27.25;;;9.38;;
73642;SDS011;61938;48.652;9.292;2024-01-15T07:29:40;27.25;;;9.88;;
73642;SDS011;61938;48.652;9.292;2024-01-15T07:32:05;30.83;;;10.98;;
73642;SDS011;61938;48.652;9.292;2024-01-15T07:34:32;27.05;;;10.43;;
73642;SDS011;61938;48.652;9.292;2024-01-15T07:36:58;28.52;;;10.55;;
73642;SDS011;61938;48.652;9.292;2024-01-15T07:39:23;30.45;;;11.75;;
73642;SDS011;61938;48.652;9.292;2024-01-15T07:41:50;29.33;;;10.80;;
73642;SDS011;61938;48.652;9.292;2024-01-15T07:44:16;31.45;;;12.32;;
73642;SDS011;61938;48.652;9.292;2024-01-15T07:46:45;29.00;;;11.52;;
73642;SDS011;61938;48.652;9.292;2024-01-15T07:49:11;25.15;;;10.05;;
73642;SDS011;61938;48.652;9.292;2024-01-15T07:51:37;27.85;;;10.77;;
73642;SDS011;61938;48.652;9.292;2024-01-15T07:54:02;30.98;;;11.07;;
73642;SDS011;61938;48.652;9.292;2024-01-15T07:56:28;30.77;;;10.68;;
73642;SDS011;61938;48.652;9.292;2024-01-15T07:58:54;31.02;;;11.23;;
73642;SDS011;61938;48.652;9.292;2024-01-15T08:01:19;29.48;;;10.20;;
73642;SDS011;61938;48.652;9.292;2024-01-15T08:03:45;23.30;;;9.35;;
73642;SDS011;61938;48.652;9.292;2024-01-15T08:06:10;25.45;;;9.18;;
73642;SDS011;61938;48.652;9.292;2024-01-15T08:08:36;22.98;;;8.95;;
73642;SDS011;61938;48.652;9.292;2024-01-15T08:11:02;27.98;;;9.88;;
73642;SDS011;61938;48.652;9.292;2024-01-15T08:13:28;23.17;;;9.38;;
73642;SDS011;61938;48.652;9.292;2024-01-15T08:15:53;26.20;;;9.77;;
73642;SDS011;61938;48.652;9.292;2024-01-15T08:18:19;23.55;;;9.02;;
73642;SDS011;61938;48.652;9.292;2024-01-15T08:20:46;20.98;;;8.65;;
73642;SDS011;61938;48.652;9.292;2024-01-15T08:23:12;25.45;;;8.98;;
73642;SDS011;61938;48.652;9.292;2024-01-15T08:25:37;22.65;;;8.95;;
73642;SDS011;61938;48.652;9.292;2024-01-15T08:28:03;28.05;;;9.35;;
73642;SDS011;61938;48.652;9.292;2024-01-15T08:30:29;27.27;;;8.63;;
73642;SDS011;61938;48.652;9.292;2024-01-15T08:32:54;21.95;;;7.93;;
73642;SDS011;61938;48.652;9.292;2024-01-15T08:35:20;28.50;;;8.68;;
73642;SDS011;61938;48.652;9.292;2024-01-15T08:37:50;25.25;;;8.57;;
73642;SDS011;61938;48.652;9.292;2024-01-15T08:40:21;20.95;;;8.52;;
73642;SDS011;61938;48.652;9.292;2024-01-15T08:43:10;25.20;;;8.70;;
73642;SDS011;61938;48.652;9.292;2024-01-15T08:45:36;24.77;;;9.40;;
73642;SDS011;61938;48.652;9.292;2024-01-15T08:48:01;24.02;;;8.60;;
73642;SDS011;61938;48.652;9.292;2024-01-15T08:50:27;22.35;;;8.73;;
73642;SDS011;61938;48.652;9.292;2024-01-15T08:52:54;25.13;;;9.30;;
73642;SDS011;61938;48.652;9.292;2024-01-15T08:55:20;23.80;;;7.72;;
73642;SDS011;61938;48.652;9.292;2024-01-15T08:57:47;22.90;;;7.80;;
73642;SDS011;61938;48.652;9.292;2024-01-15T09:00:13;20.25;;;8.10;;
73642;SDS011;61938;48.652;9.292;2024-01-15T09:02:39;23.27;;;8.00;;
73642;SDS011;61938;48.652;9.292;2024-01-15T09:05:04;19.88;;;7.20;;
73642;SDS011;61938;48.652;9.292;2024-01-15T09:07:30;21.80;;;7.10;;
73642;SDS011;61938;48.652;9.292;2024-01-15T09:09:56;18.30;;;7.07;;
73642;SDS011;61938;48.652;9.292;2024-01-15T09:12:21;21.45;;;7.70;;
73642;SDS011;61938;48.652;9.292;2024-01-15T09:14:47;25.67;;;8.43;;
73642;SDS011;61938;48.652;9.292;2024-01-15T09:17:12;20.52;;;7.15;;
73642;SDS011;61938;48.652;9.292;2024-01-15T09:19:38;18.13;;;6.85;;
73642;SDS011;61938;48.652;9.292;2024-01-15T09:22:04;19.23;;;6.93;;
73642;SDS011;61938;48.652;9.292;2024-01-15T09:24:30;17.90;;;6.55;;
73642;SDS011;61938;48.652;9.292;2024-01-15T09:26:56;16.05;;;6.18;;
73642;SDS011;61938;48.652;9.292;2024-01-15T09:29:21;15.98;;;6.20;;
73642;SDS011;61938;48.652;9.292;2024-01-15T09:31:48;22.00;;;7.30;;
73642;SDS011;61938;48.652;9.292;2024-01-15T09:34:15;18.90;;;6.47;;
73642;SDS011;61938;48.652;9.292;2024-01-15T09:36:41;15.13;;;5.45;;
73642;SDS011;61938;48.652;9.292;2024-01-15T09:39:07;13.35;;;5.85;;
73642;SDS011;61938;48.652;9.292;2024-01-15T09:41:36;14.15;;;5.13;;
73642;SDS011;61938;48.652;9.292;2024-01-15T09:44:03;19.15;;;6.72;;
73642;SDS011;61938;48.652;9.292;2024-01-15T09:46:28;19.55;;;6.32;;
73642;SDS011;61938;48.652;9.292;2024-01-15T09:48:56;16.20;;;6.53;;
73642;SDS011;61938;48.652;9.292;2024-01-15T09:51:22;14.35;;;5.43;;
73642;SDS011;61938;48.652;9.292;2024-01-15T09:53:49;13.52;;;4.95;;
73642;SDS011;61938;48.652;9.292;2024-01-15T09:56:15;16.42;;;5.63;;
73642;SDS011;61938;48.652;9.292;2024-01-15T09:58:41;13.73;;;5.32;;
73642;SDS011;61938;48.652;9.292;2024-01-15T10:01:07;15.63;;;6.20;;
73642;SDS011;61938;48.652;9.292;2024-01-15T10:03:33;14.35;;;5.50;;
73642;SDS011;61938;48.652;9.292;2024-01-15T10:05:59;10.90;;;4.25;;
73642;SDS011;61938;48.652;9.292;2024-01-15T10:08:24;14.68;;;5.55;;
73642;SDS011;61938;48.652;9.292;2024-01-15T10:10:50;13.38;;;5.35;;
73642;SDS011;61938;48.652;9.292;2024-01-15T10:13:17;9.70;;;4.57;;
73642;SDS011;61938;48.652;9.292;2024-01-15T10:15:45;11.27;;;4.80;;
73642;SDS011;61938;48.652;9.292;2024-01-15T10:18:12;10.98;;;4.13;;
73642;SDS011;61938;48.652;9.292;2024-01-15T10:20:37;12.75;;;4.55;;
73642;SDS011;61938;48.652;9.292;2024-01-15T10:23:04;10.70;;;4.70;;
73642;SDS011;61938;48.652;9.292;2024-01-15T10:25:30;14.02;;;4.78;;
73642;SDS011;61938;48.652;9.292;2024-01-15T10:28:02;12.00;;;4.13;;
73642;SDS011;61938;48.652;9.292;2024-01-15T10:30:29;9.55;;;4.47;;
73642;SDS011;61938;48.652;9.292;2024-01-15T10:33:00;9.65;;;4.38;;
73642;SDS011;61938;48.652;9.292;2024-01-15T10:35:30;11.27;;;4.80;;
73642;SDS011;61938;48.652;9.292;2024-01-15T10:37:56;11.52;;;4.70;;
73642;SDS011;61938;48.652;9.292;2024-01-15T10:40:22;11.07;;;4.60;;
73642;SDS011;61938;48.652;9.292;2024-01-15T10:42:48;12.27;;;4.90;;
73642;SDS011;61938;48.652;9.292;2024-01-15T10:45:14;10.82;;;4.57;;
73642;SDS011;61938;48.652;9.292;2024-01-15T10:47:43;10.93;;;4.57;;
73642;SDS011;61938;48.652;9.292;2024-01-15T10:50:09;12.68;;;4.97;;
73642;SDS011;61938;48.652;9.292;2024-01-15T10:52:35;21.75;;;5.03;;
73642;SDS011;61938;48.652;9.292;2024-01-15T10:55:02;13.90;;;4.82;;
73642;SDS011;61938;48.652;9.292;2024-01-15T10:57:29;12.35;;;4.95;;
73642;SDS011;61938;48.652;9.292;2024-01-15T10:59:55;13.98;;;5.10;;
73642;SDS011;61938;48.652;9.292;2024-01-15T11:02:21;16.23;;;5.15;;
73642;SDS011;61938;48.652;9.292;2024-01-15T11:04:47;12.57;;;4.72;;
73642;SDS011;61938;48.652;9.292;2024-01-15T11:07:13;12.02;;;4.78;;
73642;SDS011;61938;48.652;9.292;2024-01-15T11:09:39;11.57;;;4.38;;
73642;SDS011;61938;48.652;9.292;2024-01-15T11:12:11;13.52;;;5.25;;
73642;SDS011;61938;48.652;9.292;2024-01-15T11:14:48;11.43;;;5.30;;
73642;SDS011;61938;48.652;9.292;2024-01-15T11:17:14;13.15;;;5.32;;
73642;SDS011;61938;48.652;9.292;2024-01-15T11:22:10;17.98;;;6.72;;
73642;SDS011;61938;48.652;9.292;2024-01-15T11:25:33;17.30;;;6.13;;
73642;SDS011;61938;48.652;9.292;2024-01-15T11:27:49;13.68;;;6.18;;
73642;SDS011;61938;48.652;9.292;2024-01-15T11:30:16;14.18;;;6.28;;
73642;SDS011;61938;48.652;9.292;2024-01-15T11:32:43;11.93;;;5.70;;
73642;SDS011;61938;48.652;9.292;2024-01-15T11:35:09;11.52;;;4.88;;
73642;SDS011;61938;48.652;9.292;2024-01-15T11:40:35;11.55;;;4.88;;
73642;SDS011;61938;48.652;9.292;2024-01-15T11:43:03;10.88;;;4.78;;
73642;SDS011;61938;48.652;9.292;2024-01-15T11:45:28;10.13;;;4.63;;
73642;SDS011;61938;48.652;9.292;2024-01-15T11:50:45;12.80;;;4.93;;
73642;SDS011;61938;48.652;9.292;2024-01-15T11:53:16;14.02;;;5.20;;
73642;SDS011;61938;48.652;9.292;2024-01-15T11:55:46;10.68;;;4.70;;
73642;SDS011;61938;48.652;9.292;2024-01-15T11:58:13;18.85;;;5.10;;
73642;SDS011;61938;48.652;9.292;2024-01-15T12:00:40;12.27;;;5.70;;
73642;SDS011;61938;48.652;9.292;2024-01-15T12:03:07;14.65;;;5.20;;
73642;SDS011;61938;48.652;9.292;2024-01-15T12:05:36;11.82;;;4.70;;
73642;SDS011;61938;48.652;9.292;2024-01-15T12:08:04;11.60;;;5.25;;
73642;SDS011;61938;48.652;9.292;2024-01-15T12:10:36;11.55;;;5.68;;
73642;SDS011;61938;48.652;9.292;2024-01-15T12:15:38;15.23;;;5.60;;
73642;SDS011;61938;48.652;9.292;2024-01-15T12:18:08;15.38;;;6.18;;
73642;SDS011;61938;48.652;9.292;2024-01-15T12:20:34;14.05;;;6.05;;
73642;SDS011;61938;48.652;9.292;2024-01-15T12:23:00;13.05;;;5.82;;
73642;SDS011;61938;48.652;9.292;2024-01-15T12:25:30;13.30;;;5.45;;
73642;SDS011;61938;48.652;9.292;2024-01-15T12:27:57;11.80;;;5.20;;
73642;SDS011;61938;48.652;9.292;2024-01-15T12:30:24;12.48;;;5.38;;
73642;SDS011;61938;48.652;9.292;2024-01-15T12:32:51;12.20;;;5.53;;
73642;SDS011;61938;48.652;9.292;2024-01-15T12:35:17;15.02;;;5.88;;
73642;SDS011;61938;48.652;9.292;2024-01-15T12:37:43;14.43;;;6.38;;
73642;SDS011;61938;48.652;9.292;2024-01-15T12:40:09;15.80;;;6.32;;
73642;SDS011;61938;48.652;9.292;2024-01-15T12:42:41;16.95;;;5.97;;
73642;SDS011;61938;48.652;9.292;2024-01-15T12:45:08;14.75;;;5.72;;
73642;SDS011;61938;48.652;9.292;2024-01-15T12:47:38;14.50;;;6.00;;
73642;SDS011;61938;48.652;9.292;2024-01-15T12:50:11;12.52;;;5.40;;
73642;SDS011;61938;48.652;9.292;2024-01-15T12:52:41;14.35;;;6.30;;
73642;SDS011;61938;48.652;9.292;2024-01-15T12:55:07;14.27;;;6.32;;
73642;SDS011;61938;48.652;9.292;2024-01-15T12:57:36;14.43;;;6.28;;
73642;SDS011;61938;48.652;9.292;2024-01-15T13:00:02;12.48;;;5.43;;
73642;SDS011;61938;48.652;9.292;2024-01-15T13:02:33;11.82;;;5.90;;
73642;SDS011;61938;48.652;9.292;2024-01-15T13:04:59;12.55;;;5.32;;
73642;SDS011;61938;48.652;9.292;2024-01-15T13:07:25;14.40;;;5.50;;
73642;SDS011;61938;48.652;9.292;2024-01-15T13:09:51;13.65;;;5.38;;
73642;SDS011;61938;48.652;9.292;2024-01-15T13:12:18;19.25;;;6.38;;
73642;SDS011;61938;48.652;9.292;2024-01-15T13:14:45;16.00;;;6.68;;
73642;SDS011;61938;48.652;9.292;2024-01-15T13:17:10;13.82;;;5.97;;
73642;SDS011;61938;48.652;9.292;2024-01-15T13:19:36;16.17;;;6.43;;
73642;SDS011;61938;48.652;9.292;2024-01-15T13:22:01;14.13;;;6.30;;
73642;SDS011;61938;48.652;9.292;2024-01-15T13:24:31;15.18;;;6.95;;
73642;SDS011;61938;48.652;9.292;2024-01-15T13:26:57;16.20;;;6.40;;
73642;SDS011;61938;48.652;9.292;2024-01-15T13:29:22;17.83;;;7.22;;
73642;SDS011;61938;48.652;9.292;2024-01-15T13:31:48;16.17;;;7.07;;
73642;SDS011;61938;48.652;9.292;2024-01-15T13:34:14;21.15;;;8.25;;
73642;SDS011;61938;48.652;9.292;2024-01-15T13:36:39;17.52;;;7.07;;
73642;SDS011;61938;48.652;9.292;2024-01-15T13:39:06;17.80;;;7.43;;
73642;SDS011;61938;48.652;9.292;2024-01-15T13:41:34;15.80;;;6.75;;
73642;SDS011;61938;48.652;9.292;2024-01-15T13:44:00;14.65;;;6.43;;
73642;SDS011;61938;48.652;9.292;2024-01-15T13:46:25;15.05;;;6.70;;
73642;SDS011;61938;48.652;9.292;2024-01-15T13:48:51;14.30;;;6.30;;
73642;SDS011;61938;48.652;9.292;2024-01-15T13:51:17;17.25;;;7.20;;
73642;SDS011;61938;48.652;9.292;2024-01-15T13:53:43;15.35;;;6.53;;
73642;SDS011;61938;48.652;9.292;2024-01-15T13:56:08;19.02;;;7.85;;
73642;SDS011;61938;48.652;9.292;2024-01-15T13:58:35;18.05;;;7.38;;
73642;SDS011;61938;48.652;9.292;2024-01-15T14:01:02;17.98;;;7.55;;
73642;SDS011;61938;48.652;9.292;2024-01-15T14:03:30;21.15;;;8.95;;
73642;SDS011;61938;48.652;9.292;2024-01-15T14:05:56;29.60;;;12.93;;
73642;SDS011;61938;48.652;9.292;2024-01-15T14:08:22;31.92;;;14.38;;
73642;SDS011;61938;48.652;9.292;2024-01-15T14:10:48;32.28;;;14.98;;
73642;SDS011;61938;48.652;9.292;2024-01-15T14:13:14;26.20;;;11.75;;
73642;SDS011;61938;48.652;9.292;2024-01-15T14:15:39;22.27;;;10.93;;
73642;SDS011;61938;48.652;9.292;2024-01-15T14:18:05;27.45;;;12.45;;
73642;SDS011;61938;48.652;9.292;2024-01-15T14:20:31;26.08;;;12.13;;
73642;SDS011;61938;48.652;9.292;2024-01-15T14:22:56;19.17;;;9.02;;
73642;SDS011;61938;48.652;9.292;2024-01-15T14:25:22;21.38;;;9.13;;
73642;SDS011;61938;48.652;9.292;2024-01-15T14:27:49;25.38;;;11.38;;
73642;SDS011;61938;48.652;9.292;2024-01-15T14:30:15;30.33;;;12.35;;
73642;SDS011;61938;48.652;9.292;2024-01-15T14:32:41;23.50;;;11.48;;
73642;SDS011;61938;48.652;9.292;2024-01-15T14:35:07;21.92;;;10.10;;